sensor_id;sensor_type;location;lat;lon;timestamp;P1;durP1;ratioP1;P2;durP2;ratioP2
14292;SDS011;62290;59.420;17.842;2022-12-20T00:02:09;3.78;;;2.92;;
14292;SDS011;62290;59.420;17.842;2022-12-20T00:04:38;4.65;;;3.65;;
14292;SDS011;62290;59.420;17.842;2022-12-20T00:07:06;4.00;;;3.33;;
14292;SDS011;62290;59.420;17.842;2022-12-20T00:09:35;6.25;;;3.40;;
14292;SDS011;62290;59.420;17.842;2022-12-20T00:12:03;4.72;;;2.85;;
14292;SDS011;62290;59.420;17.842;2022-12-20T00:14:31;5.28;;;2.80;;
14292;SDS011;62290;59.420;17.842;2022-12-20T00:16:59;4.20;;;2.63;;
14292;SDS011;62290;59.420;17.842;2022-12-20T00:19:27;4.10;;;3.05;;
14292;SDS011;62290;59.420;17.842;2022-12-20T00:21:56;2.67;;;2.30;;
14292;SDS011;62290;59.420;17.842;2022-12-20T00:24:24;4.28;;;2.72;;
14292;SDS011;62290;59.420;17.842;2022-12-20T00:26:52;3.65;;;2.88;;
14292;SDS011;62290;59.420;17.842;2022-12-20T00:29:20;5.13;;;3.03;;
14292;SDS011;62290;59.420;17.842;2022-12-20T00:31:48;3.70;;;3.10;;
14292;SDS011;62290;59.420;17.842;2022-12-20T00:34:17;3.70;;;3.00;;
14292;SDS011;62290;59.420;17.842;2022-12-20T00:36:45;4.65;;;3.03;;
14292;SDS011;62290;59.420;17.842;2022-12-20T00:39:14;5.78;;;2.97;;
14292;SDS011;62290;59.420;17.842;2022-12-20T00:41:43;2.85;;;2.55;;
14292;SDS011;62290;59.420;17.842;2022-12-20T00:44:12;4.25;;;3.10;;
14292;SDS011;62290;59.420;17.842;2022-12-20T00:46:40;3.72;;;3.00;;
14292;SDS011;62290;59.420;17.842;2022-12-20T00:49:08;4.55;;;3.47;;
14292;SDS011;62290;59.420;17.842;2022-12-20T00:51:36;6.38;;;3.83;;
14292;SDS011;62290;59.420;17.842;2022-12-20T00:54:04;4.75;;;2.95;;
14292;SDS011;62290;59.420;17.842;2022-12-20T00:56:33;4.50;;;2.88;;
14292;SDS011;62290;59.420;17.842;2022-12-20T00:59:02;4.07;;;3.28;;
14292;SDS011;62290;59.420;17.842;2022-12-20T01:01:30;3.22;;;2.70;;
14292;SDS011;62290;59.420;17.842;2022-12-20T01:04:00;5.25;;;2.90;;
14292;SDS011;62290;59.420;17.842;2022-12-20T01:06:28;4.78;;;3.08;;
14292;SDS011;62290;59.420;17.842;2022-12-20T01:08:57;3.75;;;3.15;;
14292;SDS011;62290;59.420;17.842;2022-12-20T01:11:28;4.03;;;3.05;;
14292;SDS011;62290;59.420;17.842;2022-12-20T01:13:59;3.40;;;2.90;;
14292;SDS011;62290;59.420;17.842;2022-12-20T01:16:30;3.55;;;3.03;;
14292;SDS011;62290;59.420;17.842;2022-12-20T01:18:59;5.18;;;2.78;;
14292;SDS011;62290;59.420;17.842;2022-12-20T01:21:27;3.03;;;2.55;;
14292;SDS011;62290;59.420;17.842;2022-12-20T01:23:56;3.90;;;3.22;;
14292;SDS011;62290;59.420;17.842;2022-12-20T01:26:24;5.05;;;3.50;;
14292;SDS011;62290;59.420;17.842;2022-12-20T01:28:55;3.38;;;3.08;;
14292;SDS011;62290;59.420;17.842;2022-12-20T01:31:25;4.28;;;3.40;;
14292;SDS011;62290;59.420;17.842;2022-12-20T01:33:55;4.22;;;3.22;;
14292;SDS011;62290;59.420;17.842;2022-12-20T01:36:24;5.47;;;4.22;;
14292;SDS011;62290;59.420;17.842;2022-12-20T01:38:55;4.07;;;3.33;;
14292;SDS011;62290;59.420;17.842;2022-12-20T01:41:24;5.15;;;3.50;;
14292;SDS011;62290;59.420;17.842;2022-12-20T01:43:54;5.82;;;4.03;;
14292;SDS011;62290;59.420;17.842;2022-12-20T01:46:24;5.55;;;3.78;;
14292;SDS011;62290;59.420;17.842;2022-12-20T01:48:55;5.00;;;3.90;;
14292;SDS011;62290;59.420;17.842;2022-12-20T01:51:29;5.25;;;3.80;;
14292;SDS011;62290;59.420;17.842;2022-12-20T01:54:01;5.25;;;4.03;;
14292;SDS011;62290;59.420;17.842;2022-12-20T01:56:33;5.15;;;3.97;;
14292;SDS011;62290;59.420;17.842;2022-12-20T01:59:02;4.60;;;3.78;;
14292;SDS011;62290;59.420;17.842;2022-12-20T02:01:32;4.68;;;3.97;;
14292;SDS011;62290;59.420;17.842;2022-12-20T02:04:01;5.47;;;4.13;;
14292;SDS011;62290;59.420;17.842;2022-12-20T02:06:29;4.85;;;3.88;;
14292;SDS011;62290;59.420;17.842;2022-12-20T02:08:59;5.07;;;3.83;;
14292;SDS011;62290;59.420;17.842;2022-12-20T02:11:45;4.90;;;3.85;;
14292;SDS011;62290;59.420;17.842;2022-12-20T02:14:31;5.13;;;3.70;;
14292;SDS011;62290;59.420;17.842;2022-12-20T02:17:20;6.32;;;4.05;;
14292;SDS011;62290;59.420;17.842;2022-12-20T02:20:03;5.82;;;4.40;;
14292;SDS011;62290;59.420;17.842;2022-12-20T02:22:46;4.95;;;3.88;;
14292;SDS011;62290;59.420;17.842;2022-12-20T02:25:30;5.53;;;4.22;;
14292;SDS011;62290;59.420;17.842;2022-12-20T02:28:10;6.45;;;4.43;;
14292;SDS011;62290;59.420;17.842;2022-12-20T02:30:48;5.82;;;4.13;;
14292;SDS011;62290;59.420;17.842;2022-12-20T02:33:21;5.22;;;4.25;;
14292;SDS011;62290;59.420;17.842;2022-12-20T02:35:51;5.47;;;4.07;;
14292;SDS011;62290;59.420;17.842;2022-12-20T02:38:26;4.72;;;4.13;;
14292;SDS011;62290;59.420;17.842;2022-12-20T02:40:59;5.38;;;4.45;;
14292;SDS011;62290;59.420;17.842;2022-12-20T02:43:32;6.45;;;4.55;;
14292;SDS011;62290;59.420;17.842;2022-12-20T02:46:21;5.20;;;4.50;;
14292;SDS011;62290;59.420;17.842;2022-12-20T02:48:52;6.03;;;4.65;;
14292;SDS011;62290;59.420;17.842;2022-12-20T02:51:25;5.68;;;4.32;;
14292;SDS011;62290;59.420;17.842;2022-12-20T02:53:56;5.47;;;4.40;;
14292;SDS011;62290;59.420;17.842;2022-12-20T02:56:26;5.82;;;4.65;;
14292;SDS011;62290;59.420;17.842;2022-12-20T02:59:00;5.82;;;4.65;;
14292;SDS011;62290;59.420;17.842;2022-12-20T03:01:35;6.05;;;4.45;;
14292;SDS011;62290;59.420;17.842;2022-12-20T03:04:19;5.13;;;4.40;;
14292;SDS011;62290;59.420;17.842;2022-12-20T03:06:58;6.55;;;5.07;;
14292;SDS011;62290;59.420;17.842;2022-12-20T03:09:27;5.47;;;4.45;;
14292;SDS011;62290;59.420;17.842;2022-12-20T03:11:56;5.93;;;4.55;;
14292;SDS011;62290;59.420;17.842;2022-12-20T03:14:25;5.28;;;4.40;;
14292;SDS011;62290;59.420;17.842;2022-12-20T03:16:57;6.13;;;4.45;;
14292;SDS011;62290;59.420;17.842;2022-12-20T03:19:25;6.80;;;4.95;;
14292;SDS011;62290;59.420;17.842;2022-12-20T03:21:53;5.75;;;4.32;;
14292;SDS011;62290;59.420;17.842;2022-12-20T03:24:21;5.45;;;4.43;;
14292;SDS011;62290;59.420;17.842;2022-12-20T03:26:51;6.30;;;4.70;;
14292;SDS011;62290;59.420;17.842;2022-12-20T03:29:21;5.95;;;4.55;;
14292;SDS011;62290;59.420;17.842;2022-12-20T03:31:49;5.13;;;4.57;;
14292;SDS011;62290;59.420;17.842;2022-12-20T03:34:19;5.13;;;4.28;;
14292;SDS011;62290;59.420;17.842;2022-12-20T03:36:47;6.15;;;5.00;;
14292;SDS011;62290;59.420;17.842;2022-12-20T03:39:15;6.97;;;4.82;;
14292;SDS011;62290;59.420;17.842;2022-12-20T03:41:43;5.13;;;4.38;;
14292;SDS011;62290;59.420;17.842;2022-12-20T03:44:15;7.63;;;4.88;;
14292;SDS011;62290;59.420;17.842;2022-12-20T03:46:43;6.47;;;4.80;;
14292;SDS011;62290;59.420;17.842;2022-12-20T03:49:12;6.75;;;4.93;;
14292;SDS011;62290;59.420;17.842;2022-12-20T03:51:46;7.07;;;4.90;;
14292;SDS011;62290;59.420;17.842;2022-12-20T03:54:14;7.50;;;4.55;;
14292;SDS011;62290;59.420;17.842;2022-12-20T03:57:17;5.72;;;5.05;;
14292;SDS011;62290;59.420;17.842;2022-12-20T03:59:48;7.70;;;4.70;;
14292;SDS011;62290;59.420;17.842;2022-12-20T04:02:18;6.88;;;4.95;;
14292;SDS011;62290;59.420;17.842;2022-12-20T04:04:47;5.88;;;4.40;;
14292;SDS011;62290;59.420;17.842;2022-12-20T04:07:17;6.07;;;4.53;;
14292;SDS011;62290;59.420;17.842;2022-12-20T04:09:46;6.30;;;4.57;;
14292;SDS011;62290;59.420;17.842;2022-12-20T04:12:15;5.88;;;4.70;;
14292;SDS011;62290;59.420;17.842;2022-12-20T04:14:43;6.55;;;4.90;;
14292;SDS011;62290;59.420;17.842;2022-12-20T04:17:12;6.25;;;5.18;;
14292;SDS011;62290;59.420;17.842;2022-12-20T04:19:40;7.72;;;4.57;;
14292;SDS011;62290;59.420;17.842;2022-12-20T04:22:08;5.88;;;4.57;;
14292;SDS011;62290;59.420;17.842;2022-12-20T04:24:48;5.97;;;4.75;;
14292;SDS011;62290;59.420;17.842;2022-12-20T04:27:24;6.43;;;4.82;;
14292;SDS011;62290;59.420;17.842;2022-12-20T04:29:54;5.07;;;4.40;;
14292;SDS011;62290;59.420;17.842;2022-12-20T04:32:22;6.68;;;4.65;;
14292;SDS011;62290;59.420;17.842;2022-12-20T04:34:51;6.63;;;5.28;;
14292;SDS011;62290;59.420;17.842;2022-12-20T04:37:19;5.30;;;4.65;;
14292;SDS011;62290;59.420;17.842;2022-12-20T04:39:53;5.88;;;4.55;;
14292;SDS011;62290;59.420;17.842;2022-12-20T04:42:25;5.15;;;4.38;;
14292;SDS011;62290;59.420;17.842;2022-12-20T04:44:54;5.47;;;4.38;;
14292;SDS011;62290;59.420;17.842;2022-12-20T04:47:25;5.15;;;4.53;;
14292;SDS011;62290;59.420;17.842;2022-12-20T04:49:54;5.85;;;4.60;;
14292;SDS011;62290;59.420;17.842;2022-12-20T04:52:22;5.43;;;4.50;;
14292;SDS011;62290;59.420;17.842;2022-12-20T04:55:14;5.80;;;4.35;;
14292;SDS011;62290;59.420;17.842;2022-12-20T04:57:43;5.63;;;4.28;;
14292;SDS011;62290;59.420;17.842;2022-12-20T05:00:11;7.38;;;4.95;;
14292;SDS011;62290;59.420;17.842;2022-12-20T05:02:44;6.72;;;4.10;;
14292;SDS011;62290;59.420;17.842;2022-12-20T05:05:15;5.05;;;4.55;;
14292;SDS011;62290;59.420;17.842;2022-12-20T05:07:48;5.07;;;4.18;;
14292;SDS011;62290;59.420;17.842;2022-12-20T05:10:18;5.60;;;4.28;;
14292;SDS011;62290;59.420;17.842;2022-12-20T05:12:47;6.15;;;4.38;;
14292;SDS011;62290;59.420;17.842;2022-12-20T05:15:37;5.82;;;4.93;;
14292;SDS011;62290;59.420;17.842;2022-12-20T05:18:06;5.57;;;4.38;;
14292;SDS011;62290;59.420;17.842;2022-12-20T05:20:50;4.70;;;3.95;;
14292;SDS011;62290;59.420;17.842;2022-12-20T05:23:36;5.07;;;3.78;;
14292;SDS011;62290;59.420;17.842;2022-12-20T05:26:25;4.72;;;3.78;;
14292;SDS011;62290;59.420;17.842;2022-12-20T05:28:55;4.85;;;3.85;;
14292;SDS011;62290;59.420;17.842;2022-12-20T05:31:25;4.40;;;3.75;;
14292;SDS011;62290;59.420;17.842;2022-12-20T05:33:53;4.57;;;4.07;;
14292;SDS011;62290;59.420;17.842;2022-12-20T05:36:25;5.38;;;3.83;;
14292;SDS011;62290;59.420;17.842;2022-12-20T05:38:55;6.28;;;4.20;;
14292;SDS011;62290;59.420;17.842;2022-12-20T05:41:32;5.03;;;3.35;;
14292;SDS011;62290;59.420;17.842;2022-12-20T05:44:01;5.00;;;3.85;;
14292;SDS011;62290;59.420;17.842;2022-12-20T05:46:32;5.25;;;3.83;;
14292;SDS011;62290;59.420;17.842;2022-12-20T05:49:05;4.30;;;3.17;;
14292;SDS011;62290;59.420;17.842;2022-12-20T05:51:33;3.97;;;3.00;;
14292;SDS011;62290;59.420;17.842;2022-12-20T05:54:13;4.43;;;3.55;;
14292;SDS011;62290;59.420;17.842;2022-12-20T05:56:53;3.78;;;3.17;;
14292;SDS011;62290;59.420;17.842;2022-12-20T05:59:28;3.60;;;3.30;;
14292;SDS011;62290;59.420;17.842;2022-12-20T06:01:56;4.30;;;3.55;;
14292;SDS011;62290;59.420;17.842;2022-12-20T06:04:24;4.40;;;3.40;;
14292;SDS011;62290;59.420;17.842;2022-12-20T06:06:52;5.15;;;3.53;;
14292;SDS011;62290;59.420;17.842;2022-12-20T06:09:21;3.92;;;2.90;;
14292;SDS011;62290;59.420;17.842;2022-12-20T06:12:00;7.18;;;3.42;;
14292;SDS011;62290;59.420;17.842;2022-12-20T06:14:31;3.20;;;2.90;;
14292;SDS011;62290;59.420;17.842;2022-12-20T06:16:59;3.38;;;2.63;;
14292;SDS011;62290;59.420;17.842;2022-12-20T06:19:30;4.28;;;3.00;;
14292;SDS011;62290;59.420;17.842;2022-12-20T06:21:58;4.95;;;2.78;;
14292;SDS011;62290;59.420;17.842;2022-12-20T06:24:37;12.15;;;2.97;;
14292;SDS011;62290;59.420;17.842;2022-12-20T06:27:15;4.38;;;3.13;;
14292;SDS011;62290;59.420;17.842;2022-12-20T06:29:48;4.10;;;2.88;;
14292;SDS011;62290;59.420;17.842;2022-12-20T06:32:23;3.85;;;3.10;;
14292;SDS011;62290;59.420;17.842;2022-12-20T06:34:52;3.95;;;2.78;;
14292;SDS011;62290;59.420;17.842;2022-12-20T06:37:20;3.20;;;2.60;;
14292;SDS011;62290;59.420;17.842;2022-12-20T06:39:49;4.20;;;2.30;;
14292;SDS011;62290;59.420;17.842;2022-12-20T06:42:18;4.28;;;2.63;;
14292;SDS011;62290;59.420;17.842;2022-12-20T06:44:46;4.00;;;2.80;;
14292;SDS011;62290;59.420;17.842;2022-12-20T06:47:15;3.17;;;2.35;;
14292;SDS011;62290;59.420;17.842;2022-12-20T06:49:43;3.65;;;2.72;;
14292;SDS011;62290;59.420;17.842;2022-12-20T06:52:18;4.63;;;2.80;;
14292;SDS011;62290;59.420;17.842;2022-12-20T06:54:49;2.50;;;2.13;;
14292;SDS011;62290;59.420;17.842;2022-12-20T06:57:20;4.10;;;2.55;;
14292;SDS011;62290;59.420;17.842;2022-12-20T06:59:50;3.83;;;2.72;;
14292;SDS011;62290;59.420;17.842;2022-12-20T07:02:18;3.40;;;2.45;;
14292;SDS011;62290;59.420;17.842;2022-12-20T07:04:46;3.47;;;2.35;;
14292;SDS011;62290;59.420;17.842;2022-12-20T07:07:14;4.25;;;2.20;;
14292;SDS011;62290;59.420;17.842;2022-12-20T07:09:42;3.65;;;2.58;;
14292;SDS011;62290;59.420;17.842;2022-12-20T07:12:10;2.80;;;2.13;;
14292;SDS011;62290;59.420;17.842;2022-12-20T07:14:40;2.78;;;2.47;;
14292;SDS011;62290;59.420;17.842;2022-12-20T07:17:08;3.05;;;2.50;;
14292;SDS011;62290;59.420;17.842;2022-12-20T07:19:38;3.45;;;2.65;;
14292;SDS011;62290;59.420;17.842;2022-12-20T07:22:14;2.97;;;2.22;;
14292;SDS011;62290;59.420;17.842;2022-12-20T07:24:42;4.45;;;2.47;;
14292;SDS011;62290;59.420;17.842;2022-12-20T07:27:10;3.58;;;2.45;;
14292;SDS011;62290;59.420;17.842;2022-12-20T07:29:39;5.20;;;2.45;;
14292;SDS011;62290;59.420;17.842;2022-12-20T07:32:09;3.85;;;2.58;;
14292;SDS011;62290;59.420;17.842;2022-12-20T07:34:38;5.00;;;2.50;;
14292;SDS011;62290;59.420;17.842;2022-12-20T07:37:06;2.92;;;2.20;;
14292;SDS011;62290;59.420;17.842;2022-12-20T07:39:35;9.98;;;2.88;;
14292;SDS011;62290;59.420;17.842;2022-12-20T07:42:03;5.78;;;2.65;;
14292;SDS011;62290;59.420;17.842;2022-12-20T07:44:41;3.58;;;2.42;;
14292;SDS011;62290;59.420;17.842;2022-12-20T07:47:09;3.20;;;2.60;;
14292;SDS011;62290;59.420;17.842;2022-12-20T07:49:38;3.47;;;2.60;;
14292;SDS011;62290;59.420;17.842;2022-12-20T07:52:06;4.97;;;2.35;;
14292;SDS011;62290;59.420;17.842;2022-12-20T07:54:39;5.68;;;2.75;;
14292;SDS011;62290;59.420;17.842;2022-12-20T07:57:13;4.43;;;2.85;;
14292;SDS011;62290;59.420;17.842;2022-12-20T07:59:48;3.58;;;2.60;;
14292;SDS011;62290;59.420;17.842;2022-12-20T08:02:23;15.27;;;3.05;;
14292;SDS011;62290;59.420;17.842;2022-12-20T08:04:58;3.35;;;2.05;;
14292;SDS011;62290;59.420;17.842;2022-12-20T08:07:28;4.03;;;2.58;;
14292;SDS011;62290;59.420;17.842;2022-12-20T08:09:57;2.90;;;2.20;;
14292;SDS011;62290;59.420;17.842;2022-12-20T08:12:26;3.47;;;1.88;;
14292;SDS011;62290;59.420;17.842;2022-12-20T08:14:58;4.07;;;2.50;;
14292;SDS011;62290;59.420;17.842;2022-12-20T08:17:26;2.70;;;2.20;;
14292;SDS011;62290;59.420;17.842;2022-12-20T08:19:55;2.10;;;1.90;;
14292;SDS011;62290;59.420;17.842;2022-12-20T08:22:23;2.60;;;2.13;;
14292;SDS011;62290;59.420;17.842;2022-12-20T08:24:51;3.20;;;2.35;;
14292;SDS011;62290;59.420;17.842;2022-12-20T08:27:19;6.80;;;3.22;;
14292;SDS011;62290;59.420;17.842;2022-12-20T08:29:47;4.78;;;2.28;;
14292;SDS011;62290;59.420;17.842;2022-12-20T08:32:17;5.03;;;2.42;;
14292;SDS011;62290;59.420;17.842;2022-12-20T08:34:45;55.30;;;36.22;;
14292;SDS011;62290;59.420;17.842;2022-12-20T08:37:14;51.55;;;30.48;;
14292;SDS011;62290;59.420;17.842;2022-12-20T08:39:43;48.30;;;28.63;;
14292;SDS011;62290;59.420;17.842;2022-12-20T08:42:11;35.42;;;27.95;;
14292;SDS011;62290;59.420;17.842;2022-12-20T08:44:39;31.58;;;21.80;;
14292;SDS011;62290;59.420;17.842;2022-12-20T08:47:07;21.88;;;17.35;;
14292;SDS011;62290;59.420;17.842;2022-12-20T08:49:37;17.13;;;14.18;;
14292;SDS011;62290;59.420;17.842;2022-12-20T08:52:12;11.80;;;10.43;;
14292;SDS011;62290;59.420;17.842;2022-12-20T08:54:40;10.63;;;8.60;;
14292;SDS011;62290;59.420;17.842;2022-12-20T08:57:09;9.00;;;7.50;;
14292;SDS011;62290;59.420;17.842;2022-12-20T08:59:37;8.55;;;6.43;;
14292;SDS011;62290;59.420;17.842;2022-12-20T09:02:05;7.88;;;5.60;;
14292;SDS011;62290;59.420;17.842;2022-12-20T09:04:33;6.70;;;5.38;;
14292;SDS011;62290;59.420;17.842;2022-12-20T09:07:03;6.95;;;4.97;;
14292;SDS011;62290;59.420;17.842;2022-12-20T09:09:31;7.38;;;4.95;;
14292;SDS011;62290;59.420;17.842;2022-12-20T09:11:59;8.75;;;4.68;;
14292;SDS011;62290;59.420;17.842;2022-12-20T09:14:27;5.30;;;4.47;;
14292;SDS011;62290;59.420;17.842;2022-12-20T09:16:55;7.32;;;4.45;;
14292;SDS011;62290;59.420;17.842;2022-12-20T09:19:23;6.80;;;4.13;;
14292;SDS011;62290;59.420;17.842;2022-12-20T09:21:51;5.25;;;4.00;;
14292;SDS011;62290;59.420;17.842;2022-12-20T09:24:22;4.97;;;3.97;;
14292;SDS011;62290;59.420;17.842;2022-12-20T09:26:50;5.32;;;3.40;;
14292;SDS011;62290;59.420;17.842;2022-12-20T09:29:18;3.92;;;3.28;;
14292;SDS011;62290;59.420;17.842;2022-12-20T09:31:53;4.20;;;3.08;;
14292;SDS011;62290;59.420;17.842;2022-12-20T09:34:21;3.83;;;3.22;;
14292;SDS011;62290;59.420;17.842;2022-12-20T09:36:50;3.08;;;2.72;;
14292;SDS011;62290;59.420;17.842;2022-12-20T09:39:18;3.40;;;2.97;;
14292;SDS011;62290;59.420;17.842;2022-12-20T09:41:48;4.00;;;2.97;;
14292;SDS011;62290;59.420;17.842;2022-12-20T09:44:17;4.10;;;2.67;;
14292;SDS011;62290;59.420;17.842;2022-12-20T09:46:51;4.35;;;2.88;;
14292;SDS011;62290;59.420;17.842;2022-12-20T09:49:22;3.50;;;2.55;;
14292;SDS011;62290;59.420;17.842;2022-12-20T09:52:02;3.85;;;2.55;;
14292;SDS011;62290;59.420;17.842;2022-12-20T09:54:43;2.60;;;2.30;;
14292;SDS011;62290;59.420;17.842;2022-12-20T09:57:20;3.65;;;2.30;;
14292;SDS011;62290;59.420;17.842;2022-12-20T09:59:54;8.40;;;2.42;;
14292;SDS011;62290;59.420;17.842;2022-12-20T10:02:24;3.33;;;2.35;;
14292;SDS011;62290;59.420;17.842;2022-12-20T10:05:13;2.88;;;2.17;;
14292;SDS011;62290;59.420;17.842;2022-12-20T10:07:47;4.07;;;2.42;;
14292;SDS011;62290;59.420;17.842;2022-12-20T10:10:35;2.22;;;1.90;;
14292;SDS011;62290;59.420;17.842;2022-12-20T10:13:18;2.40;;;1.83;;
14292;SDS011;62290;59.420;17.842;2022-12-20T10:15:56;2.70;;;2.20;;
14292;SDS011;62290;59.420;17.842;2022-12-20T10:18:35;2.53;;;2.00;;
14292;SDS011;62290;59.420;17.842;2022-12-20T10:21:15;2.75;;;2.15;;
14292;SDS011;62290;59.420;17.842;2022-12-20T10:23:50;2.42;;;1.90;;
14292;SDS011;62290;59.420;17.842;2022-12-20T10:26:24;2.78;;;2.33;;
14292;SDS011;62290;59.420;17.842;2022-12-20T10:28:54;2.67;;;1.63;;
14292;SDS011;62290;59.420;17.842;2022-12-20T10:31:22;2.15;;;1.95;;
14292;SDS011;62290;59.420;17.842;2022-12-20T10:33:51;2.78;;;1.92;;
14292;SDS011;62290;59.420;17.842;2022-12-20T10:36:19;2.00;;;1.80;;
14292;SDS011;62290;59.420;17.842;2022-12-20T10:38:50;3.58;;;1.80;;
14292;SDS011;62290;59.420;17.842;2022-12-20T10:41:20;1.75;;;1.55;;
14292;SDS011;62290;59.420;17.842;2022-12-20T10:43:51;3.08;;;1.90;;
14292;SDS011;62290;59.420;17.842;2022-12-20T10:46:33;2.38;;;1.60;;
14292;SDS011;62290;59.420;17.842;2022-12-20T10:52:10;1.73;;;1.55;;
14292;SDS011;62290;59.420;17.842;2022-12-20T10:54:40;1.73;;;1.38;;
14292;SDS011;62290;59.420;17.842;2022-12-20T10:57:13;4.60;;;1.80;;
14292;SDS011;62290;59.420;17.842;2022-12-20T10:59:49;3.00;;;1.77;;
14292;SDS011;62290;59.420;17.842;2022-12-20T11:02:26;2.15;;;1.65;;
14292;SDS011;62290;59.420;17.842;2022-12-20T11:05:15;2.17;;;1.63;;
14292;SDS011;62290;59.420;17.842;2022-12-20T11:07:52;2.08;;;1.80;;
14292;SDS011;62290;59.420;17.842;2022-12-20T11:10:42;2.55;;;1.58;;
14292;SDS011;62290;59.420;17.842;2022-12-20T11:13:18;2.78;;;1.70;;
14292;SDS011;62290;59.420;17.842;2022-12-20T11:15:50;3.63;;;1.52;;
14292;SDS011;62290;59.420;17.842;2022-12-20T11:18:26;2.13;;;1.30;;
14292;SDS011;62290;59.420;17.842;2022-12-20T11:21:07;3.83;;;1.52;;
14292;SDS011;62290;59.420;17.842;2022-12-20T11:23:54;2.28;;;1.50;;
14292;SDS011;62290;59.420;17.842;2022-12-20T11:26:33;3.72;;;1.80;;
14292;SDS011;62290;59.420;17.842;2022-12-20T11:29:15;3.22;;;2.53;;
14292;SDS011;62290;59.420;17.842;2022-12-20T11:32:07;3.30;;;1.90;;
14292;SDS011;62290;59.420;17.842;2022-12-20T11:34:49;3.00;;;2.03;;
14292;SDS011;62290;59.420;17.842;2022-12-20T11:37:30;2.33;;;1.63;;
14292;SDS011;62290;59.420;17.842;2022-12-20T11:40:10;1.92;;;1.23;;
14292;SDS011;62290;59.420;17.842;2022-12-20T11:42:51;1.75;;;1.42;;
14292;SDS011;62290;59.420;17.842;2022-12-20T11:45:29;1.42;;;1.33;;
14292;SDS011;62290;59.420;17.842;2022-12-20T11:48:14;1.83;;;1.25;;
14292;SDS011;62290;59.420;17.842;2022-12-20T11:50:57;1.45;;;1.13;;
14292;SDS011;62290;59.420;17.842;2022-12-20T11:53:31;2.00;;;1.33;;
14292;SDS011;62290;59.420;17.842;2022-12-20T11:56:05;1.40;;;1.30;;
14292;SDS011;62290;59.420;17.842;2022-12-20T11:58:41;1.67;;;1.20;;
14292;SDS011;62290;59.420;17.842;2022-12-20T12:01:15;3.50;;;1.30;;
14292;SDS011;62290;59.420;17.842;2022-12-20T12:03:51;1.30;;;1.20;;
14292;SDS011;62290;59.420;17.842;2022-12-20T12:06:28;2.42;;;1.30;;
14292;SDS011;62290;59.420;17.842;2022-12-20T12:09:04;1.27;;;1.13;;
14292;SDS011;62290;59.420;17.842;2022-12-20T12:11:39;1.50;;;1.25;;
14292;SDS011;62290;59.420;17.842;2022-12-20T12:14:36;2.17;;;1.52;;
14292;SDS011;62290;59.420;17.842;2022-12-20T12:17:11;2.72;;;1.90;;
14292;SDS011;62290;59.420;17.842;2022-12-20T12:19:48;1.70;;;1.30;;
14292;SDS011;62290;59.420;17.842;2022-12-20T12:22:19;4.43;;;1.40;;
14292;SDS011;62290;59.420;17.842;2022-12-20T12:24:55;1.27;;;1.02;;
14292;SDS011;62290;59.420;17.842;2022-12-20T12:27:27;1.52;;;1.10;;
14292;SDS011;62290;59.420;17.842;2022-12-20T12:29:56;1.85;;;1.30;;
14292;SDS011;62290;59.420;17.842;2022-12-20T12:32:26;1.52;;;1.10;;
14292;SDS011;62290;59.420;17.842;2022-12-20T12:35:07;1.00;;;0.90;;
14292;SDS011;62290;59.420;17.842;2022-12-20T12:37:51;1.58;;;1.08;;
14292;SDS011;62290;59.420;17.842;2022-12-20T12:43:33;2.03;;;1.10;;
14292;SDS011;62290;59.420;17.842;2022-12-20T12:46:12;1.35;;;1.00;;
14292;SDS011;62290;59.420;17.842;2022-12-20T12:48:45;1.70;;;1.10;;
14292;SDS011;62290;59.420;17.842;2022-12-20T12:51:25;1.10;;;0.95;;
14292;SDS011;62290;59.420;17.842;2022-12-20T12:54:01;1.30;;;1.17;;
14292;SDS011;62290;59.420;17.842;2022-12-20T12:56:39;2.00;;;1.65;;
14292;SDS011;62290;59.420;17.842;2022-12-20T13:02:22;1.23;;;1.05;;
14292;SDS011;62290;59.420;17.842;2022-12-20T13:08:06;2.15;;;1.25;;
14292;SDS011;62290;59.420;17.842;2022-12-20T13:13:28;2.25;;;0.90;;
14292;SDS011;62290;59.420;17.842;2022-12-20T13:16:09;2.72;;;1.00;;
14292;SDS011;62290;59.420;17.842;2022-12-20T13:21:39;1.65;;;1.02;;
14292;SDS011;62290;59.420;17.842;2022-12-20T13:27:28;3.35;;;1.38;;
14292;SDS011;62290;59.420;17.842;2022-12-20T13:35:56;1.98;;;1.17;;
14292;SDS011;62290;59.420;17.842;2022-12-20T13:38:48;1.40;;;1.05;;
14292;SDS011;62290;59.420;17.842;2022-12-20T13:44:22;1.48;;;1.30;;
14292;SDS011;62290;59.420;17.842;2022-12-20T13:47:02;2.58;;;1.40;;
14292;SDS011;62290;59.420;17.842;2022-12-20T13:49:39;2.08;;;1.17;;
14292;SDS011;62290;59.420;17.842;2022-12-20T13:52:11;1.77;;;0.90;;
14292;SDS011;62290;59.420;17.842;2022-12-20T13:54:51;2.38;;;1.30;;
14292;SDS011;62290;59.420;17.842;2022-12-20T13:57:25;1.42;;;1.30;;
14292;SDS011;62290;59.420;17.842;2022-12-20T13:59:58;3.00;;;1.17;;
14292;SDS011;62290;59.420;17.842;2022-12-20T14:02:33;1.85;;;1.13;;
14292;SDS011;62290;59.420;17.842;2022-12-20T14:05:12;2.20;;;1.00;;
14292;SDS011;62290;59.420;17.842;2022-12-20T14:07:42;2.28;;;1.00;;
14292;SDS011;62290;59.420;17.842;2022-12-20T14:10:16;1.52;;;1.13;;
14292;SDS011;62290;59.420;17.842;2022-12-20T14:12:49;1.25;;;0.85;;
14292;SDS011;62290;59.420;17.842;2022-12-20T14:15:25;2.10;;;1.10;;
14292;SDS011;62290;59.420;17.842;2022-12-20T14:17:55;1.05;;;0.90;;
14292;SDS011;62290;59.420;17.842;2022-12-20T14:20:28;1.83;;;0.90;;
14292;SDS011;62290;59.420;17.842;2022-12-20T14:23:00;1.80;;;0.93;;
14292;SDS011;62290;59.420;17.842;2022-12-20T14:25:33;1.35;;;0.93;;
14292;SDS011;62290;59.420;17.842;2022-12-20T14:28:13;1.10;;;0.80;;
14292;SDS011;62290;59.420;17.842;2022-12-20T14:30:53;1.45;;;1.00;;
14292;SDS011;62290;59.420;17.842;2022-12-20T14:33:25;1.30;;;1.00;;
14292;SDS011;62290;59.420;17.842;2022-12-20T14:36:07;1.25;;;1.00;;
14292;SDS011;62290;59.420;17.842;2022-12-20T14:38:36;1.42;;;1.10;;
14292;SDS011;62290;59.420;17.842;2022-12-20T14:44:00;1.33;;;1.00;;
14292;SDS011;62290;59.420;17.842;2022-12-20T14:46:30;2.08;;;1.10;;
14292;SDS011;62290;59.420;17.842;2022-12-20T14:49:06;0.95;;;0.80;;
14292;SDS011;62290;59.420;17.842;2022-12-20T14:51:43;1.45;;;0.98;;
14292;SDS011;62290;59.420;17.842;2022-12-20T14:54:15;2.55;;;1.02;;
14292;SDS011;62290;59.420;17.842;2022-12-20T14:57:09;1.27;;;0.90;;
14292;SDS011;62290;59.420;17.842;2022-12-20T14:59:39;2.78;;;1.20;;
14292;SDS011;62290;59.420;17.842;2022-12-20T15:02:26;1.45;;;1.30;;
14292;SDS011;62290;59.420;17.842;2022-12-20T15:05:06;1.15;;;1.00;;
14292;SDS011;62290;59.420;17.842;2022-12-20T15:07:38;1.40;;;0.90;;
14292;SDS011;62290;59.420;17.842;2022-12-20T15:10:07;1.75;;;1.20;;
14292;SDS011;62290;59.420;17.842;2022-12-20T15:12:35;1.38;;;1.10;;
14292;SDS011;62290;59.420;17.842;2022-12-20T15:15:11;1.65;;;1.02;;
14292;SDS011;62290;59.420;17.842;2022-12-20T15:17:56;1.75;;;1.10;;
14292;SDS011;62290;59.420;17.842;2022-12-20T15:20:24;2.10;;;1.10;;
14292;SDS011;62290;59.420;17.842;2022-12-20T15:22:53;1.55;;;0.95;;
14292;SDS011;62290;59.420;17.842;2022-12-20T15:25:21;1.42;;;1.10;;
14292;SDS011;62290;59.420;17.842;2022-12-20T15:27:49;2.55;;;1.20;;
14292;SDS011;62290;59.420;17.842;2022-12-20T15:30:19;3.20;;;1.50;;
14292;SDS011;62290;59.420;17.842;2022-12-20T15:32:47;5.95;;;1.23;;
14292;SDS011;62290;59.420;17.842;2022-12-20T15:35:21;3.88;;;1.38;;
14292;SDS011;62290;59.420;17.842;2022-12-20T15:37:50;4.13;;;1.15;;
14292;SDS011;62290;59.420;17.842;2022-12-20T15:40:18;2.38;;;0.90;;